createdAt,value
2022-08-07T00:02:39.614Z,8.90
2022-08-07T00:05:01.311Z,6.80
2022-08-07T00:07:39.236Z,9.80
2022-08-07T00:10:26.034Z,8.80
2022-08-07T00:15:38.360Z,9.80
2022-08-07T00:18:24.351Z,8.50
2022-08-07T00:21:56.288Z,9.80
2022-08-07T00:23:58.747Z,7.10
2022-08-07T00:26:31.408Z,8.90
2022-08-07T00:29:14.245Z,7.30
2022-08-07T00:31:43.250Z,9.70
2022-08-07T00:34:11.311Z,7.90
2022-08-07T00:36:42.930Z,7.30
2022-08-07T00:39:12.886Z,10.50
2022-08-07T00:42:02.427Z,7.40
2022-08-07T00:44:35.116Z,8.40
2022-08-07T00:47:16.005Z,6.90
2022-08-07T00:50:20.850Z,7.10
2022-08-07T00:52:41.750Z,9.40
2022-08-07T00:55:17.469Z,8.40
2022-08-07T00:57:55.702Z,8.40
2022-08-07T01:00:23.686Z,8.90
2022-08-07T01:02:52.063Z,6.70
2022-08-07T01:07:38.177Z,7.90
2022-08-07T01:10:10.884Z,9.20
2022-08-07T01:12:54.042Z,7.10
2022-08-07T01:16:00.581Z,8.30
2022-08-07T01:18:17.698Z,7.40
2022-08-07T01:20:57.363Z,10.50
2022-08-07T01:23:36.353Z,9.00
2022-08-07T01:26:13.492Z,7.10
2022-08-07T01:28:48.424Z,9.80
2022-08-07T01:31:21.137Z,9.90
2022-08-07T01:33:56.310Z,8.60
2022-08-07T01:36:33.485Z,9.40
2022-08-07T01:39:10.104Z,8.40
2022-08-07T01:42:07.899Z,10.20
2022-08-07T01:44:30.650Z,7.50
2022-08-07T01:47:01.228Z,13.00
2022-08-07T01:49:43.691Z,7.60
2022-08-07T01:52:12.587Z,10.50
2022-08-07T01:54:43.114Z,7.50
2022-08-07T01:57:24.615Z,10.80
2022-08-07T02:00:13.884Z,8.10
2022-08-07T02:03:19.301Z,7.70
2022-08-07T02:05:47.943Z,9.60
2022-08-07T02:08:25.717Z,8.00
2022-08-07T02:10:57.976Z,8.50
2022-08-07T02:13:56.786Z,8.20
2022-08-07T02:16:19.921Z,10.00
2022-08-07T02:18:56.497Z,9.60
2022-08-07T02:21:25.077Z,8.70
2022-08-07T02:23:53.259Z,9.00
2022-08-07T02:26:34.360Z,9.70
2022-08-07T02:29:04.145Z,8.70
2022-08-07T02:31:32.727Z,7.50
2022-08-07T02:34:04.169Z,10.80
2022-08-07T02:36:42.186Z,10.40
2022-08-07T02:39:17.361Z,9.20
2022-08-07T02:42:03.211Z,8.80
2022-08-07T02:44:43.370Z,8.70
2022-08-07T02:47:19.776Z,11.00
2022-08-07T02:49:55.948Z,8.70
2022-08-07T02:53:03.256Z,9.10
2022-08-07T02:56:02.227Z,9.40
2022-08-07T02:58:21.854Z,7.70
2022-08-07T03:00:51.842Z,7.00
2022-08-07T03:03:22.604Z,9.30
2022-08-07T03:05:54.268Z,8.60
2022-08-07T03:08:27.040Z,10.30
2022-08-07T03:10:59.219Z,11.60
2022-08-07T03:13:38.712Z,12.30
2022-08-07T03:16:08.576Z,8.50
2022-08-07T03:18:38.488Z,10.20
2022-08-07T03:21:08.224Z,8.90
2022-08-07T03:24:20.998Z,8.10
2022-08-07T03:26:25.375Z,8.00
2022-08-07T03:28:54.943Z,11.00
2022-08-07T03:31:23.700Z,9.70
2022-08-07T03:34:00.980Z,9.40
2022-08-07T03:36:30.381Z,8.30
2022-08-07T03:39:05.478Z,12.30
2022-08-07T03:41:42.135Z,11.10
2022-08-07T03:44:15.633Z,12.00
2022-08-07T03:47:11.081Z,7.90
2022-08-07T03:49:36.868Z,8.40
2022-08-07T03:52:04.734Z,9.30
2022-08-07T03:54:35.624Z,11.00
2022-08-07T03:58:34.296Z,12.10
2022-08-07T04:00:10.590Z,9.50
2022-08-07T04:02:47.285Z,11.10
2022-08-07T04:05:28.629Z,8.60
2022-08-07T04:08:07.407Z,11.50
2022-08-07T04:10:42.361Z,9.60
2022-08-07T04:13:15.179Z,10.40
2022-08-07T04:15:43.455Z,9.30
2022-08-07T04:18:56.975Z,11.00
2022-08-07T04:21:02.098Z,10.70
2022-08-07T04:23:43.763Z,11.50
2022-08-07T04:26:21.883Z,13.70
2022-08-07T04:28:49.842Z,9.20
2022-08-07T04:31:20.262Z,10.90
2022-08-07T04:34:16.644Z,9.20
2022-08-07T04:36:49.473Z,12.60
2022-08-07T04:39:19.275Z,10.60
2022-08-07T04:41:54.042Z,12.80
2022-08-07T04:44:21.489Z,13.40
2022-08-07T04:47:08.698Z,10.90
2022-08-07T04:49:57.379Z,10.60
2022-08-07T04:52:51.253Z,10.90
2022-08-07T04:58:12.485Z,9.80
2022-08-07T04:58:47.537Z,10.80
2022-08-07T05:01:39.863Z,9.80
2022-08-07T05:04:18.090Z,10.00
2022-08-07T05:06:51.518Z,10.10
2022-08-07T05:09:45.973Z,10.80
2022-08-07T05:12:26.775Z,9.20
2022-08-07T05:15:21.652Z,11.10
2022-08-07T05:18:01.576Z,10.60
2022-08-07T05:20:40.169Z,9.30
2022-08-07T05:23:15.851Z,11.10
2022-08-07T05:26:10.549Z,9.30
2022-08-07T05:28:34.837Z,11.30
2022-08-07T05:31:02.153Z,10.40
2022-08-07T05:33:35.616Z,10.50
2022-08-07T05:36:05.785Z,13.50
2022-08-07T05:39:00.263Z,9.60
2022-08-07T05:41:22.145Z,10.10
2022-08-07T05:44:12.410Z,10.60
2022-08-07T05:46:43.703Z,8.70
2022-08-07T05:49:13.103Z,9.00
2022-08-07T05:51:46.429Z,8.90
2022-08-07T05:54:30.822Z,9.00
2022-08-07T05:56:59.888Z,10.80
2022-08-07T05:59:27.984Z,8.40
2022-08-07T06:02:00.282Z,11.00
2022-08-07T06:04:30.161Z,7.70
2022-08-07T06:07:03.403Z,9.10
2022-08-07T06:10:03.762Z,40.60
2022-08-07T06:12:20.892Z,11.20
2022-08-07T06:14:49.860Z,8.80
2022-08-07T06:17:19.663Z,12.40
2022-08-07T06:20:03.797Z,8.50
2022-08-07T06:22:38.943Z,8.60
2022-08-07T06:25:28.043Z,7.90
2022-08-07T06:28:04.599Z,11.20
2022-08-07T06:30:37.353Z,9.10
2022-08-07T06:33:16.097Z,8.10
2022-08-07T06:38:32.846Z,9.70
2022-08-07T06:41:04.270Z,10.10
2022-08-07T06:43:40.039Z,10.60
2022-08-07T06:46:12.647Z,8.90
2022-08-07T06:48:41.992Z,9.00
2022-08-07T06:51:24.551Z,7.00
2022-08-07T06:55:34.051Z,7.20
2022-08-07T06:56:51.623Z,8.60
2022-08-07T07:00:13.187Z,8.60
2022-08-07T07:02:48.106Z,12.60
2022-08-07T07:05:08.775Z,9.80
2022-08-07T07:07:59.771Z,10.50
2022-08-07T07:10:33.539Z,9.30
2022-08-07T07:13:15.198Z,8.40
2022-08-07T07:15:51.720Z,10.80
2022-08-07T07:18:46.838Z,9.50
2022-08-07T07:21:27.213Z,8.80
2022-08-07T07:24:12.687Z,10.30
2022-08-07T07:26:40.506Z,9.50
2022-08-07T07:29:56.835Z,7.80
2022-08-07T07:32:02.716Z,8.10
2022-08-07T07:34:31.917Z,8.40
2022-08-07T07:37:14.389Z,10.70
2022-08-07T07:39:54.835Z,7.50
2022-08-07T07:42:32.521Z,9.40
2022-08-07T07:45:04.953Z,7.70
2022-08-07T07:47:51.731Z,8.20
2022-08-07T07:50:34.011Z,8.00
2022-08-07T07:53:23.273Z,10.50
2022-08-07T07:57:07.260Z,9.00
2022-08-07T07:59:51.520Z,8.30
2022-08-07T08:02:35.316Z,9.60
2022-08-07T08:05:14.259Z,8.50
2022-08-07T08:07:59.657Z,7.40
2022-08-07T08:10:35.655Z,8.60
2022-08-07T08:13:10.577Z,7.80
2022-08-07T08:15:58.086Z,7.20
2022-08-07T08:18:52.266Z,9.30
2022-08-07T08:21:56.942Z,4.90
2022-08-07T08:25:04.509Z,8.40
2022-08-07T08:28:01.896Z,6.80
2022-08-07T08:30:42.494Z,6.60
2022-08-07T08:33:17.922Z,9.10
2022-08-07T08:36:18.955Z,7.20
2022-08-07T08:39:06.499Z,11.60
2022-08-07T08:41:58.519Z,7.40
2022-08-07T08:44:45.667Z,8.30
2022-08-07T08:47:54.888Z,10.20
2022-08-07T08:50:28.359Z,11.00
2022-08-07T08:53:30.557Z,7.70
2022-08-07T08:56:12.239Z,6.50
2022-08-07T08:59:02.331Z,7.70
2022-08-07T09:01:43.989Z,9.60
2022-08-07T09:04:28.773Z,8.30
2022-08-07T09:07:46.608Z,6.40
2022-08-07T09:10:27.984Z,7.30
2022-08-07T09:13:09.752Z,6.50
2022-08-07T09:16:21.700Z,8.30
2022-08-07T09:18:58.460Z,7.00
2022-08-07T09:21:33.831Z,5.70
2022-08-07T09:24:53.999Z,7.00
2022-08-07T09:27:54.735Z,7.30
2022-08-07T09:30:27.924Z,7.70
2022-08-07T09:33:05.342Z,7.90
2022-08-07T09:36:04.741Z,6.70
2022-08-07T09:38:50.270Z,8.40
2022-08-07T09:41:58.690Z,10.40
2022-08-07T09:47:50.042Z,8.60
2022-08-07T09:48:12.079Z,9.80
2022-08-07T09:51:25.899Z,7.60
2022-08-07T09:54:00.609Z,9.30
2022-08-07T09:56:58.900Z,7.70
2022-08-07T09:59:35.833Z,8.30
2022-08-07T10:02:35.470Z,8.30
2022-08-07T10:05:58.288Z,7.40
2022-08-07T10:08:23.497Z,10.90
2022-08-07T10:11:16.830Z,5.50
2022-08-07T10:14:02.468Z,6.90
2022-08-07T10:16:48.781Z,10.90
2022-08-07T10:20:03.098Z,4.60
2022-08-07T10:23:14.731Z,8.90
2022-08-07T10:27:01.968Z,7.20
2022-08-07T10:30:44.760Z,7.80
2022-08-07T10:34:05.532Z,6.00
2022-08-07T10:37:12.751Z,9.70
2022-08-07T10:43:08.309Z,6.30
2022-08-07T10:45:58.190Z,5.40
2022-08-07T10:48:39.666Z,9.00
2022-08-07T10:52:02.071Z,11.20
2022-08-07T10:54:29.506Z,6.90
2022-08-07T10:57:18.479Z,7.10
2022-08-07T11:00:36.157Z,7.30
2022-08-07T11:03:10.901Z,10.10
2022-08-07T11:06:33.409Z,4.90
2022-08-07T11:09:11.795Z,8.20
2022-08-07T11:12:11.792Z,5.20
2022-08-07T11:14:59.830Z,8.80
2022-08-07T11:17:54.167Z,6.10
2022-08-07T11:20:42.908Z,5.10
2022-08-07T11:23:38.618Z,7.80
2022-08-07T11:29:40.866Z,5.70
2022-08-07T11:32:36.243Z,5.70
2022-08-07T11:35:10.462Z,5.20
2022-08-07T11:37:58.232Z,7.00
2022-08-07T11:40:59.157Z,8.60
2022-08-07T11:43:54.449Z,7.50
2022-08-07T11:50:18.499Z,5.20
2022-08-07T11:52:55.443Z,4.90
2022-08-07T11:56:09.114Z,5.60
2022-08-07T11:58:50.262Z,6.80
2022-08-07T12:02:00.013Z,6.60
2022-08-07T12:05:01.055Z,6.90
2022-08-07T12:07:44.100Z,4.90
2022-08-07T12:10:48.540Z,4.40
2022-08-07T12:13:53.162Z,7.10
2022-08-07T12:16:30.662Z,4.80
2022-08-07T12:19:02.129Z,5.20
2022-08-07T12:22:39.046Z,4.50
2022-08-07T12:26:03.391Z,4.20
2022-08-07T12:28:45.581Z,8.00
2022-08-07T12:31:52.408Z,4.60
2022-08-07T12:34:23.038Z,5.70
2022-08-07T12:36:53.908Z,6.80
2022-08-07T12:39:44.843Z,5.80
2022-08-07T12:42:08.331Z,7.60
2022-08-07T12:44:36.131Z,4.20
2022-08-07T12:47:11.575Z,8.30
2022-08-07T12:50:06.550Z,7.70
2022-08-07T12:53:05.176Z,8.10
2022-08-07T12:56:02.857Z,9.40
2022-08-07T12:58:39.301Z,6.20
2022-08-07T13:01:16.627Z,7.70
2022-08-07T13:04:02.408Z,7.20
2022-08-07T13:06:54.517Z,7.70
2022-08-07T13:10:28.852Z,5.30
2022-08-07T13:12:33.467Z,4.90
2022-08-07T13:15:34.598Z,8.70
2022-08-07T13:18:25.811Z,7.70
2022-08-07T13:21:37.715Z,7.60
2022-08-07T13:25:54.192Z,7.00
2022-08-07T13:28:38.452Z,8.90
2022-08-07T13:31:13.043Z,6.40
2022-08-07T13:34:32.937Z,5.90
2022-08-07T13:37:10.800Z,6.40
2022-08-07T13:40:35.759Z,4.70
2022-08-07T13:42:54.955Z,4.70
2022-08-07T13:46:11.683Z,6.90
2022-08-07T13:48:27.511Z,6.70
2022-08-07T13:51:00.279Z,8.20
2022-08-07T13:54:00.598Z,7.60
2022-08-07T13:56:36.135Z,7.40
2022-08-07T13:59:12.355Z,6.70
2022-08-07T14:01:59.419Z,4.90
2022-08-07T14:04:36.174Z,4.80
2022-08-07T14:07:09.432Z,7.90
2022-08-07T14:10:12.128Z,7.40
2022-08-07T14:12:54.102Z,5.30
2022-08-07T14:15:35.100Z,6.30
2022-08-07T14:18:28.873Z,7.10
2022-08-07T14:22:01.088Z,6.60
2022-08-07T14:24:33.413Z,6.40
2022-08-07T14:28:09.662Z,3.60
2022-08-07T14:30:07.112Z,6.10
2022-08-07T14:33:05.752Z,7.20
2022-08-07T14:35:45.249Z,5.50
2022-08-07T14:38:26.368Z,10.20
2022-08-07T14:41:12.116Z,8.00
2022-08-07T14:43:56.983Z,10.40
2022-08-07T14:46:30.533Z,16.10
2022-08-07T14:49:56.086Z,12.60
2022-08-07T14:54:35.924Z,14.50
2022-08-07T14:57:24.896Z,8.40
2022-08-07T15:00:05.128Z,7.20
2022-08-07T15:02:36.847Z,7.90
2022-08-07T15:05:04.865Z,10.80
2022-08-07T15:07:52.144Z,11.10
2022-08-07T15:10:26.786Z,15.80
2022-08-07T15:13:20.439Z,27.20
2022-08-07T15:15:52.797Z,8.10
2022-08-07T15:21:58.759Z,29.90
2022-08-07T15:27:04.743Z,12.60
2022-08-07T15:32:39.953Z,26.60
2022-08-07T15:35:14.871Z,58.70
2022-08-07T15:38:18.174Z,19.10
2022-08-07T15:40:34.518Z,20.90
2022-08-07T15:43:53.373Z,19.00
2022-08-07T15:46:03.517Z,10.60
2022-08-07T15:48:37.500Z,39.00
2022-08-07T15:54:12.358Z,77.10
2022-08-07T15:56:41.838Z,81.80
2022-08-07T15:59:16.503Z,21.30
2022-08-07T16:02:02.423Z,30.60
2022-08-07T16:04:32.075Z,39.60
2022-08-07T16:07:05.172Z,86.50
2022-08-07T16:09:54.644Z,64.70
2022-08-07T16:13:01.042Z,59.00
2022-08-07T16:15:55.004Z,60.30
2022-08-07T16:18:50.782Z,78.40
2022-08-07T16:22:02.347Z,30.30
2022-08-07T16:24:35.562Z,59.40
2022-08-07T16:27:26.685Z,55.00
2022-08-07T16:30:30.743Z,66.10
2022-08-07T16:34:03.354Z,55.00
2022-08-07T16:36:03.261Z,62.30
2022-08-07T16:39:01.344Z,45.10
2022-08-07T16:41:57.291Z,48.10
2022-08-07T16:44:55.413Z,52.20
2022-08-07T16:47:51.216Z,48.70
2022-08-07T16:50:36.938Z,54.00
2022-08-07T16:54:01.213Z,41.90
2022-08-07T16:56:14.804Z,43.60
2022-08-07T16:59:10.973Z,42.90
2022-08-07T17:01:49.928Z,32.90
2022-08-07T17:07:03.473Z,49.30
2022-08-07T17:10:05.231Z,26.50
2022-08-07T17:12:44.729Z,33.90
2022-08-07T17:15:20.277Z,34.40
2022-08-07T17:17:47.914Z,39.40
2022-08-07T17:20:37.472Z,32.90
2022-08-07T17:23:32.395Z,36.50
2022-08-07T17:26:30.597Z,29.20
2022-08-07T17:28:58.613Z,33.30
2022-08-07T17:31:44.362Z,24.50
2022-08-07T17:34:36.702Z,24.20
2022-08-07T17:38:06.260Z,25.90
2022-08-07T17:40:36.556Z,22.90
2022-08-07T17:43:18.129Z,21.30
2022-08-07T17:45:56.764Z,18.50
2022-08-07T17:48:31.098Z,19.70
2022-08-07T17:51:08.448Z,21.80
2022-08-07T17:54:00.095Z,11.20
2022-08-07T17:56:31.827Z,14.70
2022-08-07T17:59:08.973Z,25.20
2022-08-07T18:01:58.537Z,17.20
2022-08-07T18:04:48.880Z,19.20
2022-08-07T18:07:24.139Z,17.00
2022-08-07T18:10:06.197Z,23.20
2022-08-07T18:12:58.571Z,17.50
2022-08-07T18:15:32.843Z,20.70
2022-08-07T18:18:45.243Z,19.60
2022-08-07T18:21:28.743Z,19.10
2022-08-07T18:24:00.972Z,14.80
2022-08-07T18:26:48.189Z,16.50
2022-08-07T18:30:07.342Z,18.20
2022-08-07T18:32:22.295Z,21.80
2022-08-07T18:35:08.176Z,22.20
2022-08-07T18:38:55.880Z,26.10
2022-08-07T18:40:50.284Z,21.40
2022-08-07T18:43:57.769Z,13.50
2022-08-07T18:46:43.122Z,13.80
2022-08-07T18:50:32.459Z,12.40
2022-08-07T18:52:55.008Z,16.90
2022-08-07T18:55:42.843Z,16.60
2022-08-07T18:58:53.562Z,14.20
2022-08-07T19:02:33.926Z,20.60
2022-08-07T19:04:19.706Z,18.50
2022-08-07T19:07:01.452Z,19.30
2022-08-07T19:09:57.454Z,17.30
2022-08-07T19:12:48.713Z,15.00
2022-08-07T19:16:05.330Z,14.30
2022-08-07T19:18:34.465Z,16.20
2022-08-07T19:21:44.113Z,11.80
2022-08-07T19:24:43.141Z,10.80
2022-08-07T19:29:02.950Z,12.60
2022-08-07T19:31:03.258Z,17.30
2022-08-07T19:32:51.845Z,12.20
2022-08-07T19:35:33.021Z,11.90
2022-08-07T19:38:03.753Z,11.20
2022-08-07T19:40:50.347Z,12.70
2022-08-07T19:43:44.104Z,13.50
2022-08-07T19:46:35.781Z,8.20
2022-08-07T19:49:05.766Z,11.40
2022-08-07T19:51:51.872Z,13.80
2022-08-07T19:54:33.902Z,13.70
2022-08-07T19:58:01.098Z,10.70
2022-08-07T20:00:08.979Z,12.20
2022-08-07T20:02:41.298Z,11.80
2022-08-07T20:05:27.802Z,9.40
2022-08-07T20:08:07.191Z,13.50
2022-08-07T20:10:55.091Z,8.90
2022-08-07T20:15:59.964Z,9.40
2022-08-07T20:18:32.217Z,11.10
2022-08-07T20:21:02.555Z,8.10
2022-08-07T20:23:40.698Z,9.20
2022-08-07T20:26:10.065Z,9.20
2022-08-07T20:28:39.191Z,7.30
2022-08-07T20:31:21.360Z,9.60
2022-08-07T20:33:56.323Z,11.20
2022-08-07T20:36:24.104Z,7.40
2022-08-07T20:39:00.850Z,13.10
2022-08-07T20:41:45.863Z,6.60
2022-08-07T20:44:15.450Z,9.90
2022-08-07T20:46:45.496Z,6.70
2022-08-07T20:49:58.480Z,7.70
2022-08-07T20:52:16.381Z,9.00
2022-08-07T20:54:53.316Z,8.10
2022-08-07T20:57:25.801Z,7.30
2022-08-07T21:00:06.869Z,10.50
2022-08-07T21:02:58.736Z,6.50
2022-08-07T21:05:57.238Z,6.10
2022-08-07T21:08:36.701Z,7.00
2022-08-07T21:11:17.218Z,7.30
2022-08-07T21:14:32.024Z,5.30
2022-08-07T21:17:06.399Z,6.10
2022-08-07T21:19:50.710Z,6.90
2022-08-07T21:22:28.303Z,5.50
2022-08-07T21:25:04.477Z,5.30
2022-08-07T21:27:55.850Z,5.80
2022-08-07T21:30:52.047Z,7.60
2022-08-07T21:33:38.341Z,5.70
2022-08-07T21:36:32.738Z,5.60
2022-08-07T21:39:45.779Z,6.90
2022-08-07T21:42:49.328Z,7.10
2022-08-07T21:46:05.123Z,8.30
2022-08-07T21:48:28.514Z,7.00
2022-08-07T21:51:07.710Z,6.10
2022-08-07T21:53:52.824Z,7.90
2022-08-07T21:56:47.957Z,5.70
2022-08-07T22:00:05.099Z,4.50
2022-08-07T22:02:34.827Z,6.60
2022-08-07T22:05:03.186Z,5.80
2022-08-07T22:07:58.356Z,4.20
2022-08-07T22:10:24.528Z,5.10
2022-08-07T22:13:00.027Z,4.20
2022-08-07T22:19:01.214Z,4.70
2022-08-07T22:22:02.042Z,4.70
2022-08-07T22:24:32.653Z,6.50
2022-08-07T22:28:02.979Z,4.60
2022-08-07T22:30:19.890Z,6.50
2022-08-07T22:32:47.584Z,5.70
2022-08-07T22:35:18.063Z,7.30
2022-08-07T22:38:08.129Z,6.30
2022-08-07T22:41:29.108Z,6.50
2022-08-07T22:44:13.002Z,5.60
2022-08-07T22:47:08.697Z,6.10
2022-08-07T22:50:20.517Z,7.10
2022-08-07T22:52:59.242Z,9.90
2022-08-07T22:55:51.430Z,9.30
2022-08-07T22:58:18.742Z,6.90
2022-08-07T23:01:06.321Z,6.90
2022-08-07T23:04:10.095Z,4.50
2022-08-07T23:07:40.326Z,9.80
2022-08-07T23:10:38.451Z,5.50
2022-08-07T23:13:48.427Z,7.00
2022-08-07T23:16:55.829Z,5.90
2022-08-07T23:20:03.856Z,6.50
2022-08-07T23:22:40.437Z,7.80
2022-08-07T23:25:30.307Z,9.80
2022-08-07T23:28:22.046Z,6.80
2022-08-07T23:31:18.582Z,6.50
2022-08-07T23:34:38.296Z,8.30
2022-08-07T23:37:18.627Z,6.60
2022-08-07T23:40:27.939Z,5.50
2022-08-07T23:43:16.485Z,9.20
2022-08-07T23:46:10.923Z,7.00
2022-08-07T23:48:41.260Z,7.30
2022-08-07T23:52:59.824Z,7.40
2022-08-07T23:54:36.477Z,9.60
2022-08-07T23:57:22.320Z,6.80
